Time;durP1;ratioP1;P1;durP2;ratioP2;P2;SDS_P1;SDS_P2;PMS_P1;PMS_P2;Temp;Humidity;BMP_temperature;BMP_pressure;BME280_temperature;BME280_humidity;BME280_pressure;Samples;Min_cycle;Max_cycle;Signal;HPM_P1;HPM_P2
2022/08/31 00:06:01;;;;;;;9.88;3.22;;;;;;;29.26;35.92;101513.63;5065601;28;20068;-48
2022/08/31 00:08:31;;;;;;;6.25;2.53;;;;;;;29.25;36.06;101518.91;5055141;28;20031;-48
2022/08/31 00:11:00;;;;;;;7.03;2.90;;;;;;;29.26;36.21;101513.63;5072786;28;20062;-47
2022/08/31 00:13:29;;;;;;;8.60;2.72;;;;;;;29.14;36.29;101508.34;5055008;28;20028;-48
2022/08/31 00:15:58;;;;;;;8.48;2.95;;;;;;;29.09;35.94;101507.47;5054838;28;20082;-48
2022/08/31 00:18:26;;;;;;;7.15;2.53;;;;;;;29.15;36.04;101504.81;5072747;28;20024;-46
2022/08/31 00:21:41;;;;;;;5.53;2.33;;;;;;;29.09;36.14;101505.69;5055194;28;20020;-48
2022/08/31 00:24:10;;;;;;;7.10;2.67;;;;;;;29.16;36.18;101500.41;5072806;28;20100;-48
2022/08/31 00:26:39;;;;;;;7.53;3.05;;;;;;;29.12;36.17;101491.63;5072699;28;20488;-49
2022/08/31 00:29:07;;;;;;;4.43;2.03;;;;;;;29.11;36.14;101495.16;5072768;28;20109;-47
2022/08/31 00:31:36;;;;;;;8.73;2.83;;;;;;;29.14;36.15;101494.25;5076080;28;20154;-46
2022/08/31 00:34:05;;;;;;;5.93;2.50;;;;;;;29.08;36.31;101487.22;5058932;28;20035;-47
2022/08/31 00:36:33;;;;;;;6.35;2.65;;;;;;;29.03;36.06;101489.88;5076306;28;20037;-48
2022/08/31 00:39:02;;;;;;;5.38;2.38;;;;;;;29.03;36.33;101489.88;5076699;28;20471;-50
2022/08/31 00:41:31;;;;;;;5.97;2.78;;;;;;;28.99;36.01;101485.47;5076448;28;20024;-46
2022/08/31 00:44:02;;;;;;;6.90;2.85;;;;;;;29.00;36.34;101497.78;5058571;28;20033;-48
2022/08/31 00:46:34;;;;;;;5.60;2.40;;;;;;;29.02;35.97;101490.75;5076373;28;20099;-47
2022/08/31 00:49:12;;;;;;;6.60;2.70;;;;;;;29.02;36.27;101487.22;5075986;28;20071;-49
2022/08/31 00:51:46;;;;;;;5.45;2.88;;;;;;;28.99;36.16;101488.09;5058563;28;20059;-47
2022/08/31 00:54:16;;;;;;;8.80;2.65;;;;;;;29.03;35.92;101492.50;5074604;28;20031;-47
2022/08/31 00:56:45;;;;;;;8.18;2.45;;;;;;;28.95;36.13;101481.06;5076110;28;20020;-46
2022/08/31 00:59:16;;;;;;;7.80;2.78;;;;;;;28.89;36.40;101488.97;5055303;28;20537;-47
2022/08/31 01:01:45;;;;;;;4.50;2.35;;;;;;;28.86;36.57;101483.69;5055955;28;20037;-47
2022/08/31 01:04:13;;;;;;;8.68;2.88;;;;;;;28.84;36.29;101488.09;5054862;28;20390;-47
2022/08/31 01:06:43;;;;;;;6.60;3.35;;;;;;;28.90;35.99;101477.53;5056098;28;20029;-46
2022/08/31 01:09:12;;;;;;;8.52;2.60;;;;;;;28.94;35.74;101481.94;5071149;28;20423;-49
2022/08/31 01:11:41;;;;;;;6.63;2.78;;;;;;;28.98;35.82;101480.16;5055711;28;20474;-47
2022/08/31 01:14:10;;;;;;;6.75;2.45;;;;;;;28.84;36.08;101474.91;5055030;28;20380;-48
2022/08/31 01:16:43;;;;;;;7.28;2.70;;;;;;;28.82;35.76;101480.16;5055820;28;20500;-47
2022/08/31 01:19:23;;;;;;;15.48;2.38;;;;;;;28.86;35.63;101487.22;5071353;28;20356;-49
2022/08/31 01:22:10;;;;;;;6.55;2.20;;;;;;;28.82;36.04;101487.22;5071086;28;20114;-47
2022/08/31 01:24:41;;;;;;;7.72;2.60;;;;;;;28.82;35.73;101488.09;5055907;28;20029;-47
2022/08/31 01:27:10;;;;;;;5.65;2.67;;;;;;;28.79;35.85;101499.53;5054870;28;20053;-47
2022/08/31 01:29:37;;;;;;;11.48;2.60;;;;;;;28.71;35.87;101495.94;5054663;28;20025;-47
2022/08/31 01:32:07;;;;;;;7.38;2.72;;;;;;;28.63;36.04;101487.16;5055574;28;20533;-46
2022/08/31 01:34:35;;;;;;;12.30;2.58;;;;;;;28.68;36.19;101498.63;5055678;28;20087;-46
2022/08/31 01:37:04;;;;;;;5.32;2.38;;;;;;;28.69;35.93;101510.94;5055099;28;20047;-47
2022/08/31 01:39:32;;;;;;;6.53;2.88;;;;;;;28.64;36.10;101504.75;5054120;28;20032;-49
2022/08/31 01:42:01;;;;;;;5.50;2.35;;;;;;;28.67;35.81;101507.41;5054870;28;20082;-47
2022/08/31 01:44:29;;;;;;;8.68;2.85;;;;;;;28.68;35.92;101508.28;5055124;28;20386;-47
2022/08/31 01:46:58;;;;;;;9.63;2.90;;;;;;;28.69;36.02;101517.97;5055239;28;20150;-47
2022/08/31 01:49:26;;;;;;;6.05;2.45;;;;;;;28.62;35.88;101517.97;5070682;28;20021;-49
2022/08/31 01:51:55;;;;;;;4.43;2.10;;;;;;;28.62;35.80;101511.78;5055403;28;20462;-48
2022/08/31 01:54:26;;;;;;;6.43;2.67;;;;;;;28.61;35.91;101520.59;5055388;28;20509;-48
2022/08/31 01:56:55;;;;;;;7.50;2.95;;;;;;;28.63;35.89;101524.13;5055187;28;20021;-48
2022/08/31 01:59:23;;;;;;;4.70;2.28;;;;;;;28.66;35.78;101522.34;5067913;28;20145;-50
2022/08/31 02:01:54;;;;;;;5.82;2.55;;;;;;;28.64;35.88;101521.47;5057129;28;20024;-47
2022/08/31 02:04:24;;;;;;;5.60;2.47;;;;;;;28.62;35.75;101511.78;5074892;28;20020;-50
2022/08/31 02:06:55;;;;;;;10.80;3.05;;;;;;;28.65;35.82;101520.59;5074740;28;20059;-48
2022/08/31 02:09:23;;;;;;;6.05;2.70;;;;;;;28.61;35.93;101524.13;5074899;28;20040;-51
2022/08/31 02:11:52;;;;;;;7.88;2.55;;;;;;;28.65;35.55;101519.72;5074540;28;20108;-47
2022/08/31 02:14:21;;;;;;;6.10;2.53;;;;;;;28.65;35.88;101514.44;5074498;28;20474;-47
2022/08/31 02:16:50;;;;;;;10.32;2.67;;;;;;;28.58;35.80;101508.28;5056624;28;20417;-49
2022/08/31 02:19:19;;;;;;;6.78;2.75;;;;;;;28.61;35.59;101500.38;5074328;28;20548;-49
2022/08/31 02:21:47;;;;;;;6.95;2.50;;;;;;;28.60;35.76;101497.69;5074424;28;20090;-47
2022/08/31 02:24:16;;;;;;;5.18;2.42;;;;;;;28.62;35.75;101501.22;5074951;28;20094;-48
2022/08/31 02:26:44;;;;;;;4.40;2.10;;;;;;;28.62;35.96;101499.50;5074128;28;20021;-51
2022/08/31 02:29:13;;;;;;;6.65;2.33;;;;;;;28.61;35.96;101494.19;5074272;28;20036;-50
2022/08/31 02:31:41;;;;;;;5.00;2.25;;;;;;;28.68;35.73;101489.78;5074173;28;20060;-50
2022/08/31 02:34:10;;;;;;;3.42;1.88;;;;;;;28.56;36.11;101486.28;5073770;28;20153;-47
2022/08/31 02:36:38;;;;;;;9.13;2.70;;;;;;;28.54;35.87;101481.88;5074626;28;20024;-50
2022/08/31 02:39:07;;;;;;;6.20;2.88;;;;;;;28.57;35.80;101488.03;5074171;28;20434;-50
2022/08/31 02:41:35;;;;;;;7.43;2.40;;;;;;;28.58;35.92;101483.63;5073159;28;20103;-50
2022/08/31 02:44:04;;;;;;;6.22;2.70;;;;;;;28.50;35.79;101480.97;5073942;28;20116;-49
2022/08/31 02:46:33;;;;;;;5.95;2.40;;;;;;;28.53;35.83;101499.44;5074153;28;20428;-49
2022/08/31 02:49:02;;;;;;;7.22;2.13;;;;;;;28.53;35.65;101504.72;5073690;28;20021;-51
2022/08/31 02:51:30;;;;;;;5.20;2.30;;;;;;;28.52;35.74;101494.19;5073828;28;20078;-51
2022/08/31 02:53:59;;;;;;;6.90;2.20;;;;;;;28.47;36.11;101495.06;5038801;28;20021;-52
2022/08/31 02:56:28;;;;;;;6.95;2.53;;;;;;;28.44;36.12;101488.91;5073796;28;20398;-50
2022/08/31 02:58:56;;;;;;;7.25;2.60;;;;;;;28.38;36.02;101487.09;5073549;28;21142;-47
2022/08/31 03:01:25;;;;;;;5.05;2.70;;;;;;;28.41;36.11;101500.31;5073491;28;20535;-47
2022/08/31 03:03:54;;;;;;;4.85;2.22;;;;;;;28.44;35.89;101489.75;5073714;28;20024;-47
2022/08/31 03:06:23;;;;;;;5.90;2.40;;;;;;;28.47;35.74;101486.22;5073606;28;20378;-47
2022/08/31 03:08:51;;;;;;;7.72;2.25;;;;;;;28.45;35.73;101498.56;5073617;28;20530;-48
2022/08/31 03:11:20;;;;;;;4.75;2.30;;;;;;;28.51;36.03;101503.84;5073377;28;20029;-47
2022/08/31 03:13:49;;;;;;;8.05;2.72;;;;;;;28.45;36.03;101502.06;5073749;28;20019;-47
2022/08/31 03:16:18;;;;;;;6.20;1.90;;;;;;;28.38;35.75;101499.41;5074281;28;20029;-48
2022/08/31 03:18:47;;;;;;;10.77;2.40;;;;;;;28.34;36.03;101504.69;5073313;28;20046;-47
2022/08/31 03:21:16;;;;;;;6.40;2.83;;;;;;;28.39;36.08;101507.31;5073272;28;20063;-48
2022/08/31 03:23:44;;;;;;;6.35;2.55;;;;;;;28.43;35.82;101495.91;5073238;28;20028;-47
2022/08/31 03:26:13;;;;;;;7.85;3.13;;;;;;;28.31;36.10;101496.75;5073239;28;20504;-48
2022/08/31 03:28:41;;;;;;;5.22;2.47;;;;;;;28.30;36.21;101496.75;5072736;28;20031;-49
2022/08/31 03:31:11;;;;;;;5.82;2.20;;;;;;;28.37;36.34;101500.28;5073329;28;20036;-50
2022/08/31 03:33:39;;;;;;;8.48;3.08;;;;;;;28.36;36.07;101496.78;5073379;28;20029;-51
2022/08/31 03:36:08;;;;;;;8.57;3.00;;;;;;;28.32;36.18;101497.66;5073279;28;20024;-52
2022/08/31 03:38:36;;;;;;;4.93;2.33;;;;;;;28.26;36.47;101510.81;5072694;28;20028;-50
2022/08/31 03:41:05;;;;;;;3.92;2.05;;;;;;;28.26;36.20;101503.78;5072646;28;20029;-51
2022/08/31 03:43:34;;;;;;;5.10;2.13;;;;;;;28.28;36.45;101506.44;5072958;28;20508;-47
2022/08/31 03:46:03;;;;;;;5.35;2.30;;;;;;;28.27;36.27;101497.66;5073121;28;20032;-51
2022/08/31 03:48:32;;;;;;;4.28;2.22;;;;;;;28.32;36.03;101495.88;5073193;28;20104;-50
2022/08/31 03:51:00;;;;;;;9.07;2.95;;;;;;;28.30;36.13;101491.47;5073090;28;20040;-50
2022/08/31 03:53:29;;;;;;;9.32;3.05;;;;;;;28.38;36.11;101499.41;5073328;28;20020;-51
2022/08/31 03:56:01;;;;;;;6.78;2.55;;;;;;;28.29;36.26;101498.53;5073078;28;20028;-52
2022/08/31 03:58:31;;;;;;;5.32;2.60;;;;;;;28.17;36.48;101490.56;5072750;28;20040;-51
2022/08/31 04:00:59;;;;;;;7.75;2.80;;;;;;;28.18;36.50;101489.69;5073047;28;20478;-50
2022/08/31 04:03:28;;;;;;;7.45;3.53;;;;;;;28.20;36.50;101493.22;5072645;28;20106;-51
2022/08/31 04:05:56;;;;;;;7.20;2.58;;;;;;;28.20;36.60;101485.28;5080274;28;20031;-46
2022/08/31 04:08:25;;;;;;;10.43;3.25;;;;;;;28.19;36.49;101496.72;5079594;28;20453;-50
2022/08/31 04:10:54;;;;;;;5.43;2.53;;;;;;;28.22;36.34;101501.13;5079621;28;20028;-50
2022/08/31 04:13:23;;;;;;;9.55;3.33;;;;;;;28.14;36.51;101501.09;5079605;28;20029;-49
2022/08/31 04:15:51;;;;;;;5.75;2.55;;;;;;;28.24;36.48;101499.38;5079319;28;20035;-51
2022/08/31 04:18:20;;;;;;;7.28;2.53;;;;;;;28.20;36.55;101498.50;5079299;28;20033;-51
2022/08/31 04:20:49;;;;;;;5.63;2.45;;;;;;;28.23;36.49;101487.94;5079705;28;20488;-51
2022/08/31 04:23:17;;;;;;;7.72;2.70;;;;;;;28.16;36.61;101494.06;5079055;28;20032;-50
2022/08/31 04:25:46;;;;;;;8.50;2.33;;;;;;;28.14;36.72;101490.53;5079191;28;20020;-47
2022/08/31 04:28:14;;;;;;;7.45;2.63;;;;;;;28.11;36.73;101482.66;5079297;28;20016;-49
2022/08/31 04:30:43;;;;;;;8.18;2.33;;;;;;;28.14;36.91;101490.53;5079163;28;20047;-48
2022/08/31 04:33:11;;;;;;;6.45;2.20;;;;;;;28.10;36.79;101478.25;5061481;28;20031;-52
2022/08/31 04:35:41;;;;;;;8.48;2.92;;;;;;;28.18;36.49;101481.78;5078918;28;20037;-47
2022/08/31 04:38:09;;;;;;;5.25;2.60;;;;;;;28.21;36.63;101484.41;5079396;28;20070;-50
2022/08/31 04:40:39;;;;;;;6.32;2.42;;;;;;;28.14;36.71;101483.53;5079258;28;20028;-48
2022/08/31 04:43:08;;;;;;;5.75;2.53;;;;;;;28.08;36.82;101479.94;5079211;28;20025;-50
2022/08/31 04:45:41;;;;;;;9.25;3.05;;;;;;;27.99;36.95;101467.63;5078685;28;20028;-50
2022/08/31 04:48:09;;;;;;;4.97;2.65;;;;;;;28.02;37.00;101468.50;5079098;28;20032;-48
2022/08/31 04:50:38;;;;;;;7.85;2.50;;;;;;;28.11;36.78;101475.59;5079071;28;20028;-49
2022/08/31 04:53:06;;;;;;;8.70;2.83;;;;;;;28.14;36.85;101483.53;5079179;28;20060;-48
2022/08/31 04:55:38;;;;;;;7.90;2.95;;;;;;;28.05;36.90;101481.69;5079372;28;20130;-47
2022/08/31 04:58:07;;;;;;;4.13;2.22;;;;;;;28.09;36.88;101492.25;5078733;28;20110;-47
2022/08/31 05:00:35;;;;;;;8.88;3.22;;;;;;;28.00;36.93;101483.44;5045192;28;20040;-52
2022/08/31 05:03:04;;;;;;;5.70;2.90;;;;;;;28.05;37.06;101489.63;5078317;28;20032;-49
2022/08/31 05:05:37;;;;;;;8.77;3.13;;;;;;;28.01;37.08;101485.19;5079151;28;20057;-46
2022/08/31 05:08:05;;;;;;;7.22;2.22;;;;;;;28.04;36.96;101501.03;5079603;28;20040;-47
2022/08/31 05:10:34;;;;;;;9.45;3.40;;;;;;;28.08;36.99;101501.06;5079111;28;20036;-47
2022/08/31 05:13:03;;;;;;;11.25;3.00;;;;;;;28.07;36.78;101501.94;5061217;28;20499;-47
2022/08/31 05:15:31;;;;;;;8.90;3.05;;;;;;;27.99;37.11;101499.25;5077543;28;20031;-47
2022/08/31 05:18:00;;;;;;;9.45;3.55;;;;;;;27.94;36.98;101490.44;5075820;28;20369;-51
2022/08/31 05:20:28;;;;;;;9.52;3.13;;;;;;;27.95;37.35;101490.47;5075742;28;20024;-47
2022/08/31 05:22:57;;;;;;;7.38;2.80;;;;;;;27.98;37.23;101490.44;5075234;28;20111;-47
2022/08/31 05:25:26;;;;;;;8.65;2.55;;;;;;;27.96;37.16;101486.94;5075501;28;20039;-47
2022/08/31 05:27:55;;;;;;;10.02;2.38;;;;;;;27.99;37.21;101493.97;5075414;28;20112;-47
2022/08/31 05:30:23;;;;;;;6.78;3.00;;;;;;;27.99;37.23;101500.13;5075756;28;20024;-46
2022/08/31 05:32:51;;;;;;;12.18;3.42;;;;;;;27.95;37.30;101502.75;5075179;28;20028;-48
2022/08/31 05:35:20;;;;;;;7.80;2.65;;;;;;;27.99;37.13;101502.75;5075639;28;20028;-48
2022/08/31 05:37:51;;;;;;;8.93;3.33;;;;;;;27.95;37.32;101503.66;5075016;28;20071;-48
2022/08/31 05:40:19;;;;;;;7.18;3.25;;;;;;;27.99;37.28;101504.53;5075501;28;20031;-48
2022/08/31 05:42:47;;;;;;;7.10;2.95;;;;;;;28.02;37.37;101512.47;5074899;28;20035;-48
2022/08/31 05:45:17;;;;;;;10.35;2.70;;;;;;;27.97;37.41;101503.63;5074820;28;20028;-50
2022/08/31 05:47:46;;;;;;;9.02;2.92;;;;;;;27.99;37.28;101509.81;5075007;28;20027;-51
2022/08/31 05:50:14;;;;;;;8.55;2.25;;;;;;;27.98;37.33;101515.94;5075111;28;20112;-53
2022/08/31 05:52:42;;;;;;;8.93;2.90;;;;;;;28.00;37.16;101517.72;5057363;28;20017;-51
2022/08/31 05:55:11;;;;;;;13.73;3.50;;;;;;;27.95;37.51;101516.81;5075091;28;20029;-49
2022/08/31 05:57:40;;;;;;;7.38;2.70;;;;;;;27.98;37.37;101516.81;5074828;28;20024;-51
2022/08/31 06:00:09;;;;;;;8.65;2.70;;;;;;;27.95;37.55;101511.56;5074471;28;20056;-53
2022/08/31 06:02:38;;;;;;;10.45;2.78;;;;;;;27.99;37.27;101513.31;5074562;28;20031;-51
2022/08/31 06:05:07;;;;;;;8.82;2.85;;;;;;;27.89;37.39;101507.09;5075058;28;20449;-50
2022/08/31 06:07:36;;;;;;;9.45;2.63;;;;;;;27.99;37.53;101513.31;5075117;28;20071;-52
2022/08/31 06:10:04;;;;;;;9.20;2.50;;;;;;;27.99;37.29;101510.66;5074343;28;20021;-49
2022/08/31 06:12:33;;;;;;;10.20;3.63;;;;;;;28.01;37.41;101513.34;5056390;28;20433;-48
2022/08/31 06:15:03;;;;;;;5.82;2.25;;;;;;;28.02;37.43;101512.47;5074103;28;20029;-50
2022/08/31 06:17:33;;;;;;;6.50;2.67;;;;;;;27.99;37.57;101510.66;5074850;28;20020;-49
2022/08/31 06:20:04;;;;;;;7.38;2.35;;;;;;;27.97;37.70;101515.06;5074223;28;20020;-49
2022/08/31 06:22:37;;;;;;;10.20;3.00;;;;;;;27.98;37.60;101515.94;5056747;28;20028;-52
2022/08/31 06:25:07;;;;;;;6.68;2.45;;;;;;;28.03;37.57;101517.72;5074308;28;20040;-51
2022/08/31 06:27:37;;;;;;;6.18;2.50;;;;;;;28.04;37.46;101516.84;5073714;28;20021;-51
2022/08/31 06:30:06;;;;;;;5.93;2.35;;;;;;;28.08;37.43;101530.94;5074307;28;20081;-48
2022/08/31 06:32:35;;;;;;;7.72;2.65;;;;;;;28.07;37.51;101537.06;5074053;28;20039;-47
2022/08/31 06:35:03;;;;;;;13.43;2.35;;;;;;;28.07;37.38;101528.31;5074369;28;20039;-48
2022/08/31 06:37:32;;;;;;;7.70;2.60;;;;;;;27.98;37.64;101514.19;5074448;28;20026;-48
2022/08/31 06:40:01;;;;;;;10.05;3.50;;;;;;;28.11;37.53;101532.75;5073915;28;20028;-48
2022/08/31 06:42:30;;;;;;;8.93;2.55;;;;;;;28.14;37.72;101538.00;5073736;28;20033;-51
2022/08/31 06:44:58;;;;;;;6.35;2.67;;;;;;;28.20;37.54;101545.97;5074666;28;20024;-50
2022/08/31 06:47:27;;;;;;;6.53;2.22;;;;;;;28.22;37.51;101540.69;5073895;28;20117;-47
2022/08/31 06:49:56;;;;;;;7.70;2.50;;;;;;;28.25;37.71;101525.78;5073953;28;20048;-47
2022/08/31 06:52:26;;;;;;;12.60;3.08;;;;;;;28.23;37.56;101534.53;5073994;28;20024;-48
2022/08/31 06:54:54;;;;;;;7.95;2.58;;;;;;;28.21;37.62;101545.09;5073855;28;20103;-47
2022/08/31 06:57:22;;;;;;;10.82;3.15;;;;;;;28.23;37.74;101545.09;5073917;28;20485;-47
2022/08/31 06:59:53;;;;;;;9.30;3.13;;;;;;;28.20;37.54;101538.94;5073639;28;20126;-49
2022/08/31 07:02:21;;;;;;;7.60;2.55;;;;;;;28.26;38.04;101547.75;5073631;28;20032;-49
2022/08/31 07:04:49;;;;;;;7.15;2.55;;;;;;;28.14;37.95;101525.72;5073623;28;20117;-50
2022/08/31 07:07:18;;;;;;;9.15;2.88;;;;;;;28.28;37.69;101546.00;5073638;28;20052;-50
2022/08/31 07:09:46;;;;;;;8.93;2.53;;;;;;;28.33;37.70;101545.13;5073600;28;20032;-47
2022/08/31 07:12:15;;;;;;;7.15;2.40;;;;;;;28.34;37.75;101549.53;5073265;28;20392;-48
2022/08/31 07:14:45;;;;;;;13.40;2.35;;;;;;;28.33;37.61;101550.41;5073330;28;20035;-48
2022/08/31 07:17:12;;;;;;;9.05;3.00;;;;;;;28.34;37.73;101551.31;5073492;28;20036;-47
2022/08/31 07:19:41;;;;;;;6.47;2.72;;;;;;;28.44;37.88;101557.50;5073439;28;20085;-47
2022/08/31 07:22:09;;;;;;;7.68;2.58;;;;;;;28.38;37.97;101557.47;5073221;28;20062;-48
2022/08/31 07:24:38;;;;;;;8.32;2.30;;;;;;;28.39;37.85;101559.25;5055454;28;20031;-48
2022/08/31 07:27:09;;;;;;;7.35;2.55;;;;;;;28.38;37.99;101552.19;5055570;28;20089;-47
2022/08/31 07:29:39;;;;;;;10.85;3.00;;;;;;;28.37;37.77;101545.16;5072807;28;20024;-47
2022/08/31 07:32:11;;;;;;;6.95;2.13;;;;;;;28.40;37.98;101559.22;5073048;28;20028;-49
2022/08/31 07:34:42;;;;;;;9.43;2.70;;;;;;;28.41;38.22;101550.44;5073233;28;20035;-48
2022/08/31 07:42:45;;;;;;;6.90;2.28;;;;;;;28.42;38.34;101548.69;5061867;28;20188;-48
2022/08/31 07:45:21;;;;;;;10.77;3.42;;;;;;;28.44;38.26;101539.03;5055235;28;20032;-48
2022/08/31 07:47:51;;;;;;;9.82;2.88;;;;;;;28.48;38.14;101554.88;5073025;28;20032;-49
2022/08/31 07:50:20;;;;;;;7.95;2.63;;;;;;;28.57;37.78;101550.47;5084281;28;20031;-48
2022/08/31 07:52:53;;;;;;;10.63;3.25;;;;;;;28.53;38.31;101554.88;5091040;28;20477;-49
2022/08/31 07:55:23;;;;;;;10.63;3.35;;;;;;;28.55;38.31;101561.06;5093076;28;20055;-51
2022/08/31 07:57:52;;;;;;;9.20;2.95;;;;;;;28.54;38.09;101554.00;5092202;28;20074;-49
2022/08/31 08:00:22;;;;;;;10.30;3.30;;;;;;;28.54;38.29;101551.38;5092834;28;20042;-49
2022/08/31 08:02:53;;;;;;;9.52;2.85;;;;;;;28.59;38.40;101554.91;5091667;28;20124;-52
2022/08/31 08:05:24;;;;;;;10.75;3.08;;;;;;;28.60;38.40;101548.75;5093069;28;20027;-50
2022/08/31 08:07:54;;;;;;;12.88;3.08;;;;;;;28.62;38.30;101551.38;5093090;28;20024;-49
2022/08/31 08:10:25;;;;;;;9.52;2.53;;;;;;;28.60;38.27;101551.41;5075026;28;20155;-48
2022/08/31 08:12:59;;;;;;;7.25;2.00;;;;;;;28.56;38.42;101544.34;5074568;28;20177;-49
2022/08/31 08:15:28;;;;;;;12.63;3.10;;;;;;;28.59;38.61;101551.38;5075755;28;20366;-51
2022/08/31 08:17:57;;;;;;;10.82;3.10;;;;;;;28.63;38.23;101554.00;5093097;28;20020;-51
2022/08/31 08:20:25;;;;;;;11.15;2.80;;;;;;;28.59;38.13;101547.00;5092829;28;20024;-51
2022/08/31 08:22:54;;;;;;;11.25;3.38;;;;;;;28.68;38.00;101551.41;5074833;28;20039;-47
2022/08/31 08:25:22;;;;;;;9.95;2.90;;;;;;;28.64;38.39;101547.84;5093152;28;20021;-47
2022/08/31 08:27:54;;;;;;;5.68;2.50;;;;;;;28.70;38.25;101554.03;5074874;28;20562;-47
2022/08/31 08:30:22;;;;;;;7.18;2.85;;;;;;;28.68;38.14;101548.78;5093078;28;20105;-50
2022/08/31 08:32:51;;;;;;;7.03;2.45;;;;;;;28.74;38.14;101555.84;5092864;28;20401;-48
2022/08/31 08:35:19;;;;;;;8.55;3.00;;;;;;;28.75;38.05;101557.63;5092992;28;20060;-47
2022/08/31 08:37:50;;;;;;;11.70;3.58;;;;;;;28.75;38.20;101560.25;5075429;28;20016;-48
2022/08/31 08:40:33;;;;;;;8.40;2.60;;;;;;;28.70;38.32;101551.41;5092941;28;20060;-48
2022/08/31 08:43:04;;;;;;;5.68;2.28;;;;;;;28.70;38.24;101548.75;5074693;28;20074;-50
2022/08/31 08:45:33;;;;;;;8.15;2.80;;;;;;;28.65;38.56;101552.25;5093018;28;20028;-51
2022/08/31 08:48:10;;;;;;;9.05;2.10;;;;;;;28.66;38.38;101546.09;5092711;28;20025;-47
2022/08/31 08:50:40;;;;;;;10.10;3.22;;;;;;;28.72;38.45;101539.09;5076136;28;20380;-51
2022/08/31 08:53:11;;;;;;;8.25;2.95;;;;;;;28.68;38.43;101542.59;5096868;28;20039;-49
2022/08/31 08:55:41;;;;;;;6.63;2.55;;;;;;;28.79;38.23;101554.13;5096505;28;20032;-50
2022/08/31 08:58:12;;;;;;;7.20;2.47;;;;;;;28.83;38.24;101541.78;5096622;28;20046;-48
2022/08/31 09:00:45;;;;;;;7.38;3.28;;;;;;;28.85;38.31;101547.97;5096508;28;20473;-52
2022/08/31 09:03:43;;;;;;;11.85;3.15;;;;;;;28.80;38.46;101551.47;5096062;28;20088;-48
2022/08/31 09:06:30;;;;;;;14.73;3.25;;;;;;;28.77;38.93;101550.59;5092521;28;20028;-52
2022/08/31 09:09:36;;;;;;;10.15;3.20;;;;;;;28.77;38.94;101551.44;5087100;28;20047;-47
2022/08/31 09:12:06;;;;;;;16.98;3.72;;;;;;;28.82;39.01;101558.50;5088231;28;20124;-49
2022/08/31 09:14:38;;;;;;;8.38;2.67;;;;;;;28.87;38.72;101551.47;5096156;28;20374;-48
2022/08/31 09:17:25;;;;;;;5.68;2.47;;;;;;;28.90;38.90;101554.09;5095754;28;20028;-48
2022/08/31 09:19:59;;;;;;;10.48;3.63;;;;;;;28.91;38.80;101554.13;5089327;28;20212;-51
2022/08/31 09:22:31;;;;;;;9.00;3.03;;;;;;;28.94;38.79;101554.13;5095859;28;20028;-48
2022/08/31 09:25:02;;;;;;;8.00;2.67;;;;;;;28.94;38.72;101548.84;5096083;28;20089;-50
2022/08/31 09:27:56;;;;;;;14.80;3.47;;;;;;;29.05;38.35;101555.88;5096346;28;20073;-48
2022/08/31 09:30:44;;;;;;;12.50;2.90;;;;;;;29.01;38.51;101548.84;5078479;28;20027;-48
2022/08/31 09:33:33;;;;;;;14.00;3.15;;;;;;;29.07;38.62;101556.78;5095962;28;20056;-47
2022/08/31 09:36:15;;;;;;;10.90;3.42;;;;;;;29.07;38.57;101547.06;5077909;28;20085;-49
2022/08/31 09:38:45;;;;;;;9.82;3.58;;;;;;;29.13;38.30;101558.53;5095816;28;20496;-51
2022/08/31 09:41:35;;;;;;;5.20;2.67;;;;;;;29.09;38.63;101549.75;5095581;28;20071;-50
2022/08/31 09:44:25;;;;;;;12.40;3.20;;;;;;;29.09;38.34;101552.38;5078126;28;20074;-48
2022/08/31 09:46:56;;;;;;;15.90;3.38;;;;;;;29.11;38.55;101543.56;5095357;28;20036;-48
2022/08/31 09:49:28;;;;;;;9.30;3.22;;;;;;;29.11;38.83;101550.63;5095516;28;20032;-51
2022/08/31 09:52:17;;;;;;;6.32;3.35;;;;;;;29.11;38.73;101551.50;5060863;28;20040;-52
2022/08/31 09:55:12;;;;;;;7.53;3.08;;;;;;;29.19;38.22;101537.41;5077424;28;20082;-51
2022/08/31 09:58:03;;;;;;;10.82;3.00;;;;;;;29.17;38.48;101557.66;5095480;28;20024;-51
2022/08/31 10:00:35;;;;;;;10.25;3.13;;;;;;;29.25;38.20;101545.31;5095192;28;20039;-51
2022/08/31 10:03:23;;;;;;;8.23;3.13;;;;;;;29.27;38.40;101556.78;5094787;28;20108;-50
2022/08/31 10:05:53;;;;;;;7.95;2.83;;;;;;;29.28;38.07;101560.31;5060419;28;20039;-52
2022/08/31 10:08:56;;;;;;;9.05;2.65;;;;;;;29.28;38.68;101550.59;5094944;28;20016;-52
2022/08/31 10:11:29;;;;;;;14.80;3.55;;;;;;;29.30;38.56;101555.88;5094538;28;20549;-50
2022/08/31 10:14:07;;;;;;;11.80;2.90;;;;;;;29.33;38.44;101548.84;5077038;28;20036;-53
2022/08/31 10:16:46;;;;;;;9.00;2.95;;;;;;;29.30;38.33;101543.56;5077714;28;20470;-52
2022/08/31 10:19:31;;;;;;;7.80;3.38;;;;;;;29.32;38.88;101554.13;5077300;28;20165;-52
2022/08/31 10:22:40;;;;;;;10.85;3.63;;;;;;;29.36;38.55;101546.25;5077648;28;20031;-53
2022/08/31 10:25:33;;;;;;;12.18;4.45;;;;;;;29.06;39.16;101552.38;5094832;28;20024;-52
2022/08/31 10:28:11;;;;;;;12.52;3.78;;;;;;;28.89;39.30;101555.88;5094839;28;20077;-52
2022/08/31 10:30:58;;;;;;;13.70;4.38;;;;;;;28.61;39.87;101563.72;5093174;28;20035;-51
2022/08/31 10:36:29;;;;;;;8.73;3.40;;;;;;;28.86;39.66;101555.88;5083858;28;20177;-52
2022/08/31 10:38:57;;;;;;;14.73;4.38;;;;;;;28.80;39.75;101559.38;5094455;28;20496;-51
2022/08/31 10:41:29;;;;;;;8.10;3.83;;;;;;;28.85;39.48;101551.47;5094140;28;20525;-51
2022/08/31 10:44:00;;;;;;;12.57;3.88;;;;;;;28.88;39.36;101554.13;5093602;28;20492;-51
2022/08/31 10:46:33;;;;;;;15.23;4.70;;;;;;;28.77;39.40;101550.59;5075322;28;20544;-52
2022/08/31 10:49:03;;;;;;;17.20;4.57;;;;;;;28.52;40.39;101539.91;5094117;28;20028;-51
2022/08/31 10:52:04;;;;;;;7.47;3.58;;;;;;;28.59;40.07;101543.44;5093489;28;20081;-52
2022/08/31 10:54:54;;;;;;;10.30;4.47;;;;;;;28.72;39.46;101542.59;5093426;28;20028;-52
2022/08/31 10:57:45;;;;;;;14.32;4.20;;;;;;;28.61;39.49;101537.31;5074050;28;20405;-51
2022/08/31 11:01:05;;;;;;;9.73;3.80;;;;;;;28.85;38.98;101532.97;5049862;28;20467;-52
2022/08/31 11:03:17;;;;;;;9.60;3.83;;;;;;;28.90;38.71;101533.88;5045801;28;20513;-51
2022/08/31 11:05:48;;;;;;;12.63;4.10;;;;;;;28.87;38.44;101533.00;5053031;28;20045;-52
2022/08/31 11:08:56;;;;;;;11.82;4.13;;;;;;;28.89;38.45;101529.47;5053669;28;20048;-52
2022/08/31 11:11:34;;;;;;;8.07;3.38;;;;;;;28.92;38.35;101523.31;5052228;28;20029;-50
2022/08/31 11:14:13;;;;;;;7.68;3.20;;;;;;;28.82;38.50;101506.56;5052319;28;20107;-49
2022/08/31 11:16:58;;;;;;;10.95;3.83;;;;;;;28.98;38.11;101520.69;5053369;28;20029;-50
2022/08/31 11:19:41;;;;;;;11.38;3.35;;;;;;;29.12;37.95;101515.41;5052239;28;20478;-51
2022/08/31 11:22:09;;;;;;;10.02;3.90;;;;;;;29.20;37.91;101513.63;5068211;28;20542;-48
2022/08/31 11:24:59;;;;;;;11.55;3.92;;;;;;;29.26;37.94;101518.91;5053188;28;20048;-48
2022/08/31 11:27:32;;;;;;;9.32;2.95;;;;;;;29.23;38.07;101518.91;5050233;28;20037;-49
2022/08/31 11:30:06;;;;;;;10.10;4.07;;;;;;;29.32;37.80;101511.84;5053318;28;20023;-48
2022/08/31 11:32:44;;;;;;;10.23;3.33;;;;;;;29.14;37.83;101508.34;5035319;28;20378;-48
2022/08/31 11:35:14;;;;;;;14.20;4.00;;;;;;;29.09;38.08;101512.75;5051521;28;20037;-49
2022/08/31 11:37:51;;;;;;;9.70;4.38;;;;;;;28.95;38.06;101511.00;5052079;28;20387;-50
2022/08/31 11:40:42;;;;;;;9.93;3.83;;;;;;;29.11;38.41;101513.63;5053520;28;20021;-52
2022/08/31 11:43:33;;;;;;;12.10;4.07;;;;;;;29.23;38.15;101513.63;5052509;28;20044;-51
2022/08/31 11:46:24;;;;;;;10.73;3.95;;;;;;;28.85;38.90;101517.13;5049432;28;20107;-53
2022/08/31 11:48:53;;;;;;;9.52;4.13;;;;;;;28.86;39.00;101523.31;5051788;28;20143;-52
2022/08/31 11:51:40;;;;;;;14.10;4.85;;;;;;;28.75;39.32;101526.81;5053107;28;20075;-51
2022/08/31 11:54:27;;;;;;;9.65;4.15;;;;;;;28.74;39.39;101525.03;5044854;28;20397;-51
2022/08/31 11:56:55;;;;;;;15.20;4.72;;;;;;;28.75;39.54;101526.81;5052923;28;20025;-51
2022/08/31 11:59:25;;;;;;;11.75;4.72;;;;;;;28.75;39.47;101526.81;5064282;28;20139;-52
2022/08/31 12:01:55;;;;;;;14.73;4.25;;;;;;;28.85;39.26;101517.13;5072506;28;20104;-53